sensor_id;sensor_type;location;lat;lon;timestamp;pressure;altitude;pressure_sealevel;temperature;humidity
9009;BME280;62813;51.424;6.762;2023-10-13T00:00:52;101001.72;;;16.93;91.46
9009;BME280;62813;51.424;6.762;2023-10-13T00:03:32;101018.47;;;16.93;91.12
9009;BME280;62813;51.424;6.762;2023-10-13T00:06:09;101006.47;;;16.96;91.44
9009;BME280;62813;51.424;6.762;2023-10-13T00:08:37;101010.19;;;16.95;91.22
9009;BME280;62813;51.424;6.762;2023-10-13T00:11:05;101002.50;;;16.93;91.11
9009;BME280;62813;51.424;6.762;2023-10-13T00:13:33;100993.72;;;16.93;91.41
9009;BME280;62813;51.424;6.762;2023-10-13T00:16:29;100991.56;;;16.95;91.34
9009;BME280;62813;51.424;6.762;2023-10-13T00:18:57;100979.53;;;16.97;91.45
9009;BME280;62813;51.424;6.762;2023-10-13T00:21:24;100979.84;;;16.96;91.14
9009;BME280;62813;51.424;6.762;2023-10-13T00:24:02;100985.94;;;16.96;91.26
9009;BME280;62813;51.424;6.762;2023-10-13T00:26:33;100975.50;;;17.00;91.22
9009;BME280;62813;51.424;6.762;2023-10-13T00:29:03;100975.50;;;17.00;91.21
9009;BME280;62813;51.424;6.762;2023-10-13T00:31:35;100978.47;;;16.98;91.23
9009;BME280;62813;51.424;6.762;2023-10-13T00:34:07;100967.97;;;17.02;91.01
9009;BME280;62813;51.424;6.762;2023-10-13T00:36:54;100973.81;;;17.04;91.24
9009;BME280;62813;51.424;6.762;2023-10-13T00:39:42;100965.03;;;17.03;91.17
9009;BME280;62813;51.424;6.762;2023-10-13T00:42:15;100957.53;;;17.06;91.32
9009;BME280;62813;51.424;6.762;2023-10-13T00:44:47;100948.47;;;17.07;91.02
9009;BME280;62813;51.424;6.762;2023-10-13T00:47:37;100954.38;;;17.03;91.25
9009;BME280;62813;51.424;6.762;2023-10-13T00:50:15;100950.94;;;17.03;91.37
9009;BME280;62813;51.424;6.762;2023-10-13T00:53:10;100944.22;;;17.06;91.36
9009;BME280;62813;51.424;6.762;2023-10-13T00:55:37;100947.78;;;17.01;91.33
9009;BME280;62813;51.424;6.762;2023-10-13T00:58:08;100931.19;;;17.04;91.20
9009;BME280;62813;51.424;6.762;2023-10-13T01:00:41;100928.38;;;17.00;91.37
9009;BME280;62813;51.424;6.762;2023-10-13T01:03:23;100923.22;;;17.04;91.66
9009;BME280;62813;51.424;6.762;2023-10-13T01:05:55;100932.78;;;17.05;91.44
9009;BME280;62813;51.424;6.762;2023-10-13T01:08:32;100928.75;;;17.08;91.37
9009;BME280;62813;51.424;6.762;2023-10-13T01:11:01;100930.78;;;17.11;91.23
9009;BME280;62813;51.424;6.762;2023-10-13T01:13:27;100920.94;;;17.11;91.30
9009;BME280;62813;51.424;6.762;2023-10-13T01:15:57;100918.75;;;17.13;90.95
9009;BME280;62813;51.424;6.762;2023-10-13T01:18:24;100915.13;;;17.09;91.50
9009;BME280;62813;51.424;6.762;2023-10-13T01:21:00;100924.78;;;17.05;91.75
9009;BME280;62813;51.424;6.762;2023-10-13T01:23:30;100925.28;;;17.07;91.62
9009;BME280;62813;51.424;6.762;2023-10-13T01:26:04;100909.59;;;17.06;91.58
9009;BME280;62813;51.424;6.762;2023-10-13T01:28:32;100903.50;;;17.05;92.01
9009;BME280;62813;51.424;6.762;2023-10-13T01:31:11;100913.06;;;17.06;91.88
9009;BME280;62813;51.424;6.762;2023-10-13T01:33:52;100908.81;;;17.05;92.20
9009;BME280;62813;51.424;6.762;2023-10-13T01:36:21;100907.75;;;17.06;92.19
9009;BME280;62813;51.424;6.762;2023-10-13T01:38:49;100911.00;;;17.03;92.45
9009;BME280;62813;51.424;6.762;2023-10-13T01:41:21;100898.97;;;17.06;92.16
9009;BME280;62813;51.424;6.762;2023-10-13T01:43:48;100894.72;;;17.05;92.33
9009;BME280;62813;51.424;6.762;2023-10-13T01:46:15;100888.91;;;17.02;92.59
9009;BME280;62813;51.424;6.762;2023-10-13T01:48:46;100875.91;;;17.01;92.54
9009;BME280;62813;51.424;6.762;2023-10-13T01:51:13;100883.91;;;17.01;92.50
9009;BME280;62813;51.424;6.762;2023-10-13T01:53:40;100889.31;;;16.96;93.04
9009;BME280;62813;51.424;6.762;2023-10-13T01:56:10;100873.34;;;16.96;92.77
9009;BME280;62813;51.424;6.762;2023-10-13T01:58:38;100879.75;;;16.95;92.87
9009;BME280;62813;51.424;6.762;2023-10-13T02:01:09;100864.06;;;16.93;93.17
9009;BME280;62813;51.424;6.762;2023-10-13T02:03:40;100862.69;;;16.96;93.38
9009;BME280;62813;51.424;6.762;2023-10-13T02:06:15;100860.31;;;16.94;93.05
9009;BME280;62813;51.424;6.762;2023-10-13T02:08:50;100860.03;;;16.96;93.18
9009;BME280;62813;51.424;6.762;2023-10-13T02:11:23;100858.47;;;16.95;93.30
9009;BME280;62813;51.424;6.762;2023-10-13T02:13:50;100850.47;;;16.95;93.15
9009;BME280;62813;51.424;6.762;2023-10-13T02:16:20;100840.13;;;16.93;93.41
9009;BME280;62813;51.424;6.762;2023-10-13T02:18:49;100842.00;;;16.93;93.39
9009;BME280;62813;51.424;6.762;2023-10-13T02:21:18;100834.13;;;16.88;93.28
9009;BME280;62813;51.424;6.762;2023-10-13T02:23:45;100839.75;;;16.86;93.74
9009;BME280;62813;51.424;6.762;2023-10-13T02:26:12;100836.28;;;16.86;93.65
9009;BME280;62813;51.424;6.762;2023-10-13T02:29:01;100842.25;;;16.83;93.79
9009;BME280;62813;51.424;6.762;2023-10-13T02:31:38;100832.66;;;16.82;93.61
9009;BME280;62813;51.424;6.762;2023-10-13T02:34:06;100843.41;;;16.77;93.90
9009;BME280;62813;51.424;6.762;2023-10-13T02:36:39;100823.41;;;16.79;94.19
9009;BME280;62813;51.424;6.762;2023-10-13T02:39:16;100831.25;;;16.84;93.57
9009;BME280;62813;51.424;6.762;2023-10-13T02:41:43;100832.06;;;16.85;93.69
9009;BME280;62813;51.424;6.762;2023-10-13T02:44:15;100820.63;;;16.84;93.50
9009;BME280;62813;51.424;6.762;2023-10-13T02:46:55;100821.91;;;16.87;93.57
9009;BME280;62813;51.424;6.762;2023-10-13T02:49:27;100809.38;;;16.87;93.72
9009;BME280;62813;51.424;6.762;2023-10-13T02:51:58;100817.50;;;16.82;93.83
9009;BME280;62813;51.424;6.762;2023-10-13T02:54:34;100803.75;;;16.89;93.98
9009;BME280;62813;51.424;6.762;2023-10-13T02:57:08;100795.13;;;16.83;93.75
9009;BME280;62813;51.424;6.762;2023-10-13T02:59:35;100797.94;;;16.87;94.06
9009;BME280;62813;51.424;6.762;2023-10-13T03:02:14;100795.41;;;16.82;94.20
9009;BME280;62813;51.424;6.762;2023-10-13T03:04:48;100789.78;;;16.83;94.31
9009;BME280;62813;51.424;6.762;2023-10-13T03:07:15;100788.38;;;16.86;93.77
9009;BME280;62813;51.424;6.762;2023-10-13T03:09:42;100779.59;;;16.85;94.35
9009;BME280;62813;51.424;6.762;2023-10-13T03:12:21;100774.41;;;16.80;94.22
9009;BME280;62813;51.424;6.762;2023-10-13T03:14:50;100770.38;;;16.83;94.26
9009;BME280;62813;51.424;6.762;2023-10-13T03:17:35;100774.72;;;16.79;94.40
9009;BME280;62813;51.424;6.762;2023-10-13T03:20:02;100765.16;;;16.78;94.48
9009;BME280;62813;51.424;6.762;2023-10-13T03:22:33;100759.53;;;16.79;94.79
9009;BME280;62813;51.424;6.762;2023-10-13T03:25:00;100758.25;;;16.77;94.80
9009;BME280;62813;51.424;6.762;2023-10-13T03:27:34;100758.75;;;16.79;94.67
9009;BME280;62813;51.424;6.762;2023-10-13T03:30:17;100748.09;;;16.79;94.69
9009;BME280;62813;51.424;6.762;2023-10-13T03:32:47;100748.88;;;16.79;95.10
9009;BME280;62813;51.424;6.762;2023-10-13T03:35:15;100748.09;;;16.79;95.07
9009;BME280;62813;51.424;6.762;2023-10-13T03:37:54;100728.88;;;16.82;94.95
9009;BME280;62813;51.424;6.762;2023-10-13T03:40:21;100731.25;;;16.83;94.86
9009;BME280;62813;51.424;6.762;2023-10-13T03:42:51;100719.59;;;16.79;95.33
9009;BME280;62813;51.424;6.762;2023-10-13T03:45:34;100719.44;;;16.76;95.63
9009;BME280;62813;51.424;6.762;2023-10-13T03:48:15;100705.50;;;16.79;95.79
9009;BME280;62813;51.424;6.762;2023-10-13T03:51:01;100723.84;;;16.80;95.86
9009;BME280;62813;51.424;6.762;2023-10-13T03:53:38;100709.94;;;16.83;95.65
9009;BME280;62813;51.424;6.762;2023-10-13T03:56:22;100703.16;;;16.77;95.59
9009;BME280;62813;51.424;6.762;2023-10-13T03:59:15;100716.16;;;16.79;95.72
9009;BME280;62813;51.424;6.762;2023-10-13T04:01:42;100696.75;;;16.78;95.81
9009;BME280;62813;51.424;6.762;2023-10-13T04:04:10;100696.25;;;16.76;96.33
9009;BME280;62813;51.424;6.762;2023-10-13T04:06:38;100691.56;;;16.73;96.21
9009;BME280;62813;51.424;6.762;2023-10-13T04:09:21;100693.13;;;16.74;96.12
9009;BME280;62813;51.424;6.762;2023-10-13T04:12:07;100682.78;;;16.73;96.22
9009;BME280;62813;51.424;6.762;2023-10-13T04:14:44;100671.53;;;16.76;96.21
9009;BME280;62813;51.424;6.762;2023-10-13T04:17:42;100671.84;;;16.74;96.02
9009;BME280;62813;51.424;6.762;2023-10-13T04:20:13;100673.22;;;16.72;96.30
9009;BME280;62813;51.424;6.762;2023-10-13T04:22:42;100658.94;;;16.68;96.41
9009;BME280;62813;51.424;6.762;2023-10-13T04:25:24;100651.16;;;16.71;96.21
9009;BME280;62813;51.424;6.762;2023-10-13T04:28:14;100648.78;;;16.70;96.68
9009;BME280;62813;51.424;6.762;2023-10-13T04:30:46;100641.09;;;16.68;96.44
9009;BME280;62813;51.424;6.762;2023-10-13T04:37:08;100649.09;;;16.68;96.33
9009;BME280;62813;51.424;6.762;2023-10-13T04:46:42;100643.47;;;16.70;97.01
9009;BME280;62813;51.424;6.762;2023-10-13T04:49:53;100640.31;;;16.68;96.91
9009;BME280;62813;51.424;6.762;2023-10-13T04:52:41;100610.75;;;16.69;97.01
9009;BME280;62813;51.424;6.762;2023-10-13T04:55:28;100618.72;;;16.69;96.84
9009;BME280;62813;51.424;6.762;2023-10-13T04:58:52;100603.25;;;16.71;97.31
9009;BME280;62813;51.424;6.762;2023-10-13T05:01:44;100591.22;;;16.74;97.22
9009;BME280;62813;51.424;6.762;2023-10-13T05:04:30;100594.19;;;16.72;97.40
9009;BME280;62813;51.424;6.762;2023-10-13T05:07:26;100573.53;;;16.78;97.48
9009;BME280;62813;51.424;6.762;2023-10-13T05:10:11;100585.25;;;16.77;97.27
9009;BME280;62813;51.424;6.762;2023-10-13T05:12:56;100581.06;;;16.76;97.53
9009;BME280;62813;51.424;6.762;2023-10-13T05:15:47;100581.38;;;16.74;98.21
9009;BME280;62813;51.424;6.762;2023-10-13T05:18:36;100583.72;;;16.76;97.97
9009;BME280;62813;51.424;6.762;2023-10-13T05:21:22;100576.81;;;16.75;98.23
9009;BME280;62813;51.424;6.762;2023-10-13T05:24:07;100587.78;;;16.73;98.74
9009;BME280;62813;51.424;6.762;2023-10-13T05:26:53;100581.06;;;16.76;98.56
9009;BME280;62813;51.424;6.762;2023-10-13T05:29:49;100573.38;;;16.74;98.80
9009;BME280;62813;51.424;6.762;2023-10-13T05:32:34;100580.28;;;16.75;98.85
9009;BME280;62813;51.424;6.762;2023-10-13T05:35:21;100583.25;;;16.74;98.85
9009;BME280;62813;51.424;6.762;2023-10-13T05:38:06;100588.25;;;16.75;99.05
9009;BME280;62813;51.424;6.762;2023-10-13T05:43:48;100595.63;;;16.78;98.95
9009;BME280;62813;51.424;6.762;2023-10-13T05:46:34;100604.09;;;16.80;99.28
9009;BME280;62813;51.424;6.762;2023-10-13T05:49:07;100600.81;;;16.83;98.48
9009;BME280;62813;51.424;6.762;2023-10-13T05:51:44;100603.78;;;16.82;99.01
9009;BME280;62813;51.424;6.762;2023-10-13T05:54:24;100614.25;;;16.78;99.27
9009;BME280;62813;51.424;6.762;2023-10-13T05:57:09;100611.28;;;16.80;99.66
9009;BME280;62813;51.424;6.762;2023-10-13T05:59:54;100604.88;;;16.81;99.45
9009;BME280;62813;51.424;6.762;2023-10-13T06:02:40;100601.13;;;16.82;99.75
9009;BME280;62813;51.424;6.762;2023-10-13T06:05:25;100586.41;;;16.84;99.77
9009;BME280;62813;51.424;6.762;2023-10-13T06:08:24;100566.38;;;16.87;99.59
9009;BME280;62813;51.424;6.762;2023-10-13T06:11:10;100562.81;;;16.91;99.83
9009;BME280;62813;51.424;6.762;2023-10-13T06:13:57;100575.78;;;16.93;99.90
9009;BME280;62813;51.424;6.762;2023-10-13T06:16:42;100559.81;;;16.93;100.00
9009;BME280;62813;51.424;6.762;2023-10-13T06:19:30;100562.19;;;16.94;99.92
9009;BME280;62813;51.424;6.762;2023-10-13T06:22:16;100554.69;;;16.96;100.00
9009;BME280;62813;51.424;6.762;2023-10-13T06:25:01;100559.69;;;16.98;100.00
9009;BME280;62813;51.424;6.762;2023-10-13T06:27:47;100555.94;;;16.99;100.00
9009;BME280;62813;51.424;6.762;2023-10-13T06:30:32;100552.97;;;17.00;100.00
9009;BME280;62813;51.424;6.762;2023-10-13T06:32:59;100545.44;;;17.02;100.00
9009;BME280;62813;51.424;6.762;2023-10-13T06:35:27;100545.16;;;17.04;100.00
9009;BME280;62813;51.424;6.762;2023-10-13T06:37:55;100528.06;;;17.05;100.00
9009;BME280;62813;51.424;6.762;2023-10-13T06:40:27;100542.19;;;17.06;99.89
9009;BME280;62813;51.424;6.762;2023-10-13T06:43:00;100524.31;;;17.06;100.00
9009;BME280;62813;51.424;6.762;2023-10-13T06:45:46;100535.47;;;17.08;100.00
9009;BME280;62813;51.424;6.762;2023-10-13T06:48:18;100533.25;;;17.10;100.00
9009;BME280;62813;51.424;6.762;2023-10-13T06:50:50;100546.25;;;17.12;100.00
9009;BME280;62813;51.424;6.762;2023-10-13T06:53:21;100540.63;;;17.13;100.00
9009;BME280;62813;51.424;6.762;2023-10-13T06:55:48;100532.66;;;17.13;100.00
9009;BME280;62813;51.424;6.762;2023-10-13T06:58:19;100536.56;;;17.16;100.00
9009;BME280;62813;51.424;6.762;2023-10-13T07:00:51;100534.84;;;17.20;100.00
9009;BME280;62813;51.424;6.762;2023-10-13T07:03:22;100539.09;;;17.21;100.00
9009;BME280;62813;51.424;6.762;2023-10-13T07:05:49;100551.63;;;17.29;100.00
9009;BME280;62813;51.424;6.762;2023-10-13T07:08:17;100547.56;;;17.31;99.87
9009;BME280;62813;51.424;6.762;2023-10-13T07:10:56;100536.63;;;17.33;100.00
9009;BME280;62813;51.424;6.762;2023-10-13T07:13:29;100534.44;;;17.35;100.00
9009;BME280;62813;51.424;6.762;2023-10-13T07:15:56;100535.97;;;17.36;100.00
9009;BME280;62813;51.424;6.762;2023-10-13T07:18:38;100529.41;;;17.33;100.00
9009;BME280;62813;51.424;6.762;2023-10-13T07:21:16;100533.66;;;17.34;100.00
9009;BME280;62813;51.424;6.762;2023-10-13T07:23:43;100527.19;;;17.35;100.00
9009;BME280;62813;51.424;6.762;2023-10-13T07:26:27;100524.22;;;17.37;100.00
9009;BME280;62813;51.424;6.762;2023-10-13T07:28:55;100510.78;;;17.42;99.82
9009;BME280;62813;51.424;6.762;2023-10-13T07:31:22;100512.78;;;17.45;99.43
9009;BME280;62813;51.424;6.762;2023-10-13T07:33:53;100523.63;;;17.49;99.70
9009;BME280;62813;51.424;6.762;2023-10-13T07:36:31;100520.16;;;17.48;99.80
9009;BME280;62813;51.424;6.762;2023-10-13T07:39:06;100507.63;;;17.49;99.51
9009;BME280;62813;51.424;6.762;2023-10-13T07:41:51;100510.59;;;17.47;99.84
9009;BME280;62813;51.424;6.762;2023-10-13T07:44:21;100503.09;;;17.49;99.94
9009;BME280;62813;51.424;6.762;2023-10-13T07:46:53;100494.16;;;17.54;99.63
9009;BME280;62813;51.424;6.762;2023-10-13T07:49:40;100501.53;;;17.48;99.54
9009;BME280;62813;51.424;6.762;2023-10-13T07:52:09;100499.81;;;17.52;99.40
9009;BME280;62813;51.424;6.762;2023-10-13T07:55:03;100496.69;;;17.59;99.21
9009;BME280;62813;51.424;6.762;2023-10-13T07:57:41;100495.25;;;17.61;99.05
9009;BME280;62813;51.424;6.762;2023-10-13T08:00:24;100498.09;;;17.65;98.43
9009;BME280;62813;51.424;6.762;2023-10-13T08:03:10;100485.25;;;17.67;98.50
9009;BME280;62813;51.424;6.762;2023-10-13T08:05:44;100477.56;;;17.65;98.01
9009;BME280;62813;51.424;6.762;2023-10-13T08:08:29;100483.81;;;17.69;97.94
9009;BME280;62813;51.424;6.762;2023-10-13T08:11:09;100475.53;;;17.71;97.83
9009;BME280;62813;51.424;6.762;2023-10-13T08:16:36;100466.13;;;17.82;97.54
9009;BME280;62813;51.424;6.762;2023-10-13T08:19:14;100457.47;;;17.94;96.46
9009;BME280;62813;51.424;6.762;2023-10-13T08:21:43;100469.38;;;17.96;96.57
9009;BME280;62813;51.424;6.762;2023-10-13T08:24:18;100460.25;;;18.06;96.41
9009;BME280;62813;51.424;6.762;2023-10-13T08:27:05;100473.59;;;18.06;96.15
9009;BME280;62813;51.424;6.762;2023-10-13T08:29:42;100471.41;;;18.08;95.99
9009;BME280;62813;51.424;6.762;2023-10-13T08:32:35;100458.19;;;18.20;95.82
9009;BME280;62813;51.424;6.762;2023-10-13T08:35:03;100462.09;;;18.23;95.31
9009;BME280;62813;51.424;6.762;2023-10-13T08:37:31;100449.53;;;18.23;95.40
9009;BME280;62813;51.424;6.762;2023-10-13T08:40:31;100439.53;;;18.20;94.97
9009;BME280;62813;51.424;6.762;2023-10-13T08:43:32;100443.41;;;18.31;93.61
9009;BME280;62813;51.424;6.762;2023-10-13T08:46:20;100434.44;;;18.36;93.60
9009;BME280;62813;51.424;6.762;2023-10-13T08:48:59;100436.00;;;18.37;93.29
9009;BME280;62813;51.424;6.762;2023-10-13T08:51:56;100435.81;;;18.42;92.92
9009;BME280;62813;51.424;6.762;2023-10-13T08:54:35;100428.41;;;18.47;92.29
9009;BME280;62813;51.424;6.762;2023-10-13T08:57:05;100429.81;;;18.53;91.54
9009;BME280;62813;51.424;6.762;2023-10-13T09:00:01;100427.31;;;18.57;91.01
9009;BME280;62813;51.424;6.762;2023-10-13T09:02:47;100428.69;;;18.63;90.05
9009;BME280;62813;51.424;6.762;2023-10-13T09:05:27;100425.22;;;18.71;90.49
9009;BME280;62813;51.424;6.762;2023-10-13T09:08:29;100414.91;;;18.82;88.76
9009;BME280;62813;51.424;6.762;2023-10-13T09:11:03;100420.88;;;18.87;88.07
9009;BME280;62813;51.424;6.762;2023-10-13T09:13:40;100419.09;;;18.92;88.02
9009;BME280;62813;51.424;6.762;2023-10-13T09:16:13;100421.44;;;18.93;88.05
9009;BME280;62813;51.424;6.762;2023-10-13T09:18:49;100410.56;;;18.98;87.26
9009;BME280;62813;51.424;6.762;2023-10-13T09:21:19;100414.75;;;19.08;87.24
9009;BME280;62813;51.424;6.762;2023-10-13T09:24:04;100411.22;;;19.16;85.76
9009;BME280;62813;51.424;6.762;2023-10-13T09:27:00;100398.81;;;19.32;83.40
9009;BME280;62813;51.424;6.762;2023-10-13T09:29:28;100392.19;;;19.38;83.54
9009;BME280;62813;51.424;6.762;2023-10-13T09:32:03;100388.66;;;19.46;83.34
9009;BME280;62813;51.424;6.762;2023-10-13T09:34:31;100385.38;;;19.61;81.79
9009;BME280;62813;51.424;6.762;2023-10-13T09:37:07;100381.16;;;19.60;81.05
9009;BME280;62813;51.424;6.762;2023-10-13T09:39:38;100378.81;;;19.59;80.84
9009;BME280;62813;51.424;6.762;2023-10-13T09:42:12;100390.75;;;19.61;80.11
9009;BME280;62813;51.424;6.762;2023-10-13T09:44:43;100376.03;;;19.68;79.74
9009;BME280;62813;51.424;6.762;2023-10-13T09:47:21;100377.50;;;19.77;78.66
9009;BME280;62813;51.424;6.762;2023-10-13T09:49:59;100384.22;;;19.83;76.47
9009;BME280;62813;51.424;6.762;2023-10-13T09:52:42;100380.88;;;19.86;76.69
9009;BME280;62813;51.424;6.762;2023-10-13T09:55:28;100367.06;;;19.84;76.79
9009;BME280;62813;51.424;6.762;2023-10-13T09:58:06;100361.16;;;19.91;74.79
9009;BME280;62813;51.424;6.762;2023-10-13T10:00:43;100358.16;;;19.92;74.76
9009;BME280;62813;51.424;6.762;2023-10-13T10:03:19;100379.91;;;20.03;73.44
9009;BME280;62813;51.424;6.762;2023-10-13T10:06:02;100354.81;;;20.08;72.67
9009;BME280;62813;51.424;6.762;2023-10-13T10:08:31;100360.06;;;20.04;72.81
9009;BME280;62813;51.424;6.762;2023-10-13T10:14:10;100347.94;;;20.07;73.47
9009;BME280;62813;51.424;6.762;2023-10-13T10:19:30;100345.13;;;20.15;71.60
9009;BME280;62813;51.424;6.762;2023-10-13T10:22:04;100350.91;;;20.17;72.59
9009;BME280;62813;51.424;6.762;2023-10-13T10:24:43;100336.44;;;20.18;71.27
9009;BME280;62813;51.424;6.762;2023-10-13T10:27:10;100332.63;;;20.19;70.77
9009;BME280;62813;51.424;6.762;2023-10-13T10:29:56;100333.41;;;20.20;71.36
9009;BME280;62813;51.424;6.762;2023-10-13T10:32:38;100337.78;;;20.24;70.57
9009;BME280;62813;51.424;6.762;2023-10-13T10:35:15;100332.44;;;20.24;70.19
9009;BME280;62813;51.424;6.762;2023-10-13T10:37:47;100332.66;;;20.31;70.15
9009;BME280;62813;51.424;6.762;2023-10-13T10:40:18;100339.44;;;20.29;70.36
9009;BME280;62813;51.424;6.762;2023-10-13T10:43:16;100332.53;;;20.28;71.23
9009;BME280;62813;51.424;6.762;2023-10-13T10:45:58;100334.88;;;20.29;70.22
9009;BME280;62813;51.424;6.762;2023-10-13T10:48:31;100329.09;;;20.39;69.23
9009;BME280;62813;51.424;6.762;2023-10-13T10:51:05;100320.63;;;20.37;70.12
9009;BME280;62813;51.424;6.762;2023-10-13T10:53:42;100332.31;;;20.45;69.77
9009;BME280;62813;51.424;6.762;2023-10-13T10:56:13;100317.94;;;20.50;69.61
9009;BME280;62813;51.424;6.762;2023-10-13T10:59:18;100309.91;;;20.50;70.33
9009;BME280;62813;51.424;6.762;2023-10-13T11:01:46;100304.44;;;20.46;69.99
9009;BME280;62813;51.424;6.762;2023-10-13T11:04:14;100299.41;;;20.57;68.86
9009;BME280;62813;51.424;6.762;2023-10-13T11:06:53;100307.28;;;20.65;68.44
9009;BME280;62813;51.424;6.762;2023-10-13T11:15:06;100263.72;;;20.81;67.37
9009;BME280;62813;51.424;6.762;2023-10-13T11:29:30;100261.75;;;20.93;67.01
9009;BME280;62813;51.424;6.762;2023-10-13T11:32:30;100276.00;;;21.09;66.57
9009;BME280;62813;51.424;6.762;2023-10-13T11:35:01;100269.03;;;21.21;65.85
9009;BME280;62813;51.424;6.762;2023-10-13T11:41:26;100235.59;;;21.46;64.91
9009;BME280;62813;51.424;6.762;2023-10-13T11:44:46;100219.44;;;21.42;64.93
9009;BME280;62813;51.424;6.762;2023-10-13T11:47:32;100227.03;;;21.40;64.69
9009;BME280;62813;51.424;6.762;2023-10-13T11:53:19;100238.44;;;21.53;63.71
9009;BME280;62813;51.424;6.762;2023-10-13T11:55:46;100231.00;;;21.46;63.82
9009;BME280;62813;51.424;6.762;2023-10-13T11:58:12;100236.69;;;21.45;64.76
9009;BME280;62813;51.424;6.762;2023-10-13T12:00:42;100228.41;;;21.50;63.54
9009;BME280;62813;51.424;6.762;2023-10-13T12:03:20;100218.63;;;21.58;62.96
9009;BME280;62813;51.424;6.762;2023-10-13T12:06:08;100235.56;;;21.62;63.40
9009;BME280;62813;51.424;6.762;2023-10-13T12:08:54;100223.28;;;21.61;63.82
9009;BME280;62813;51.424;6.762;2023-10-13T12:11:21;100221.75;;;21.60;63.44
9009;BME280;62813;51.424;6.762;2023-10-13T12:14:05;100217.25;;;21.64;63.66
9009;BME280;62813;51.424;6.762;2023-10-13T12:16:44;100212.31;;;21.66;64.15
9009;BME280;62813;51.424;6.762;2023-10-13T12:19:23;100212.47;;;21.73;63.61
9009;BME280;62813;51.424;6.762;2023-10-13T12:21:53;100209.16;;;21.79;62.98
9009;BME280;62813;51.424;6.762;2023-10-13T12:24:24;100206.13;;;21.81;63.87
9009;BME280;62813;51.424;6.762;2023-10-13T12:27:04;100209.16;;;21.79;62.54
9009;BME280;62813;51.424;6.762;2023-10-13T12:29:46;100208.72;;;21.93;61.50
9009;BME280;62813;51.424;6.762;2023-10-13T12:32:14;100191.41;;;21.90;62.36
9009;BME280;62813;51.424;6.762;2023-10-13T12:34:41;100182.75;;;21.97;60.41
9009;BME280;62813;51.424;6.762;2023-10-13T12:37:24;100187.25;;;21.93;60.35
9009;BME280;62813;51.424;6.762;2023-10-13T12:40:13;100191.59;;;21.98;59.78
9009;BME280;62813;51.424;6.762;2023-10-13T12:42:59;100189.06;;;21.89;60.99
9009;BME280;62813;51.424;6.762;2023-10-13T12:45:45;100195.22;;;21.89;61.19
9009;BME280;62813;51.424;6.762;2023-10-13T12:48:33;100176.78;;;21.88;60.79
9009;BME280;62813;51.424;6.762;2023-10-13T12:51:18;100187.44;;;21.84;61.19
9009;BME280;62813;51.424;6.762;2023-10-13T12:53:55;100197.75;;;21.82;61.73
9009;BME280;62813;51.424;6.762;2023-10-13T12:56:31;100197.75;;;21.82;61.01
9009;BME280;62813;51.424;6.762;2023-10-13T12:58:57;100191.31;;;21.87;60.35
9009;BME280;62813;51.424;6.762;2023-10-13T13:01:25;100180.25;;;21.88;59.59
9009;BME280;62813;51.424;6.762;2023-10-13T13:03:59;100196.63;;;21.83;59.69
9009;BME280;62813;51.424;6.762;2023-10-13T13:06:32;100198.19;;;21.84;59.35
9009;BME280;62813;51.424;6.762;2023-10-13T13:09:00;100196.88;;;21.78;59.47
9009;BME280;62813;51.424;6.762;2023-10-13T13:11:26;100197.47;;;21.87;59.40
9009;BME280;62813;51.424;6.762;2023-10-13T13:13:56;100204.34;;;21.85;59.55
9009;BME280;62813;51.424;6.762;2023-10-13T13:16:23;100192.53;;;21.89;59.01
9009;BME280;62813;51.424;6.762;2023-10-13T13:18:57;100184.63;;;21.97;58.89
9009;BME280;62813;51.424;6.762;2023-10-13T13:21:24;100170.28;;;22.05;57.95
9009;BME280;62813;51.424;6.762;2023-10-13T13:23:51;100190.13;;;22.00;58.54
9009;BME280;62813;51.424;6.762;2023-10-13T13:26:22;100185.75;;;21.96;59.06
9009;BME280;62813;51.424;6.762;2023-10-13T13:28:49;100187.94;;;21.90;60.03
9009;BME280;62813;51.424;6.762;2023-10-13T13:31:19;100188.91;;;21.98;58.79
9009;BME280;62813;51.424;6.762;2023-10-13T13:33:55;100191.13;;;21.96;58.94
9009;BME280;62813;51.424;6.762;2023-10-13T13:36:22;100183.66;;;21.85;59.44
9009;BME280;62813;51.424;6.762;2023-10-13T13:38:49;100184.56;;;21.93;58.59
9009;BME280;62813;51.424;6.762;2023-10-13T13:41:17;100190.91;;;21.85;59.19
9009;BME280;62813;51.424;6.762;2023-10-13T13:43:50;100182.09;;;21.84;59.17
9009;BME280;62813;51.424;6.762;2023-10-13T13:46:17;100180.88;;;21.82;59.50
9009;BME280;62813;51.424;6.762;2023-10-13T13:48:45;100172.06;;;21.81;58.71
9009;BME280;62813;51.424;6.762;2023-10-13T13:51:14;100164.44;;;21.83;57.71
9009;BME280;62813;51.424;6.762;2023-10-13T13:53:42;100178.28;;;21.85;57.29
9009;BME280;62813;51.424;6.762;2023-10-13T13:56:12;100164.69;;;21.78;57.33
9009;BME280;62813;51.424;6.762;2023-10-13T13:58:49;100168.69;;;21.84;57.20
9009;BME280;62813;51.424;6.762;2023-10-13T14:01:20;100175.31;;;21.90;56.76
9009;BME280;62813;51.424;6.762;2023-10-13T14:03:53;100166.00;;;21.84;57.43
9009;BME280;62813;51.424;6.762;2023-10-13T14:06:24;100166.06;;;21.88;56.54
9009;BME280;62813;51.424;6.762;2023-10-13T14:08:54;100163.38;;;21.88;55.93
9009;BME280;62813;51.424;6.762;2023-10-13T14:11:26;100157.94;;;21.84;56.21
9009;BME280;62813;51.424;6.762;2023-10-13T14:14:07;100150.03;;;21.92;55.24
9009;BME280;62813;51.424;6.762;2023-10-13T14:16:43;100153.72;;;21.83;55.31
9009;BME280;62813;51.424;6.762;2023-10-13T14:19:16;100144.78;;;21.79;55.85
9009;BME280;62813;51.424;6.762;2023-10-13T14:24:21;100139.03;;;21.77;55.04
9009;BME280;62813;51.424;6.762;2023-10-13T14:26:55;100139.44;;;21.79;55.38
9009;BME280;62813;51.424;6.762;2023-10-13T14:29:22;100146.63;;;21.75;55.97
9009;BME280;62813;51.424;6.762;2023-10-13T14:31:53;100153.28;;;21.81;55.42
9009;BME280;62813;51.424;6.762;2023-10-13T14:34:20;100145.84;;;21.75;56.00
9009;BME280;62813;51.424;6.762;2023-10-13T14:36:49;100146.19;;;21.73;56.21
9009;BME280;62813;51.424;6.762;2023-10-13T14:39:16;100140.25;;;21.64;57.19